Time;durP1;ratioP1;P1;durP2;ratioP2;P2;SDS_P1;SDS_P2;PMS_P1;PMS_P2;Temp;Humidity;BMP_temperature;BMP_pressure;BME280_temperature;BME280_humidity;BME280_pressure;Samples;Min_cycle;Max_cycle;Signal;HPM_P1;HPM_P2
2023/07/02 00:01:42;;;;;;;6.68;2.88;;;27.60;53.20;;;;;;5093422;28;20055;-77
2023/07/02 00:04:10;;;;;;;5.90;2.85;;;27.60;53.10;;;;;;5111577;28;20031;-77
2023/07/02 00:06:40;;;;;;;3.85;2.85;;;27.60;53.20;;;;;;5111711;28;20148;-78
2023/07/02 00:09:07;;;;;;;6.63;2.70;;;27.60;53.20;;;;;;5109115;28;20140;-78
2023/07/02 00:11:33;;;;;;;4.55;2.80;;;27.50;53.20;;;;;;5111619;28;20088;-78
2023/07/02 00:13:58;;;;;;;3.90;3.28;;;27.60;53.20;;;;;;5109009;28;20035;-78
2023/07/02 00:16:24;;;;;;;6.78;3.15;;;27.60;53.20;;;;;;5111531;28;20036;-78
2023/07/02 00:18:53;;;;;;;7.40;2.85;;;27.50;53.20;;;;;;5111242;28;20636;-78
2023/07/02 00:21:20;;;;;;;5.75;2.65;;;27.60;53.00;;;;;;5111666;28;20036;-78
2023/07/02 00:23:47;;;;;;;3.33;2.58;;;27.40;53.10;;;;;;5112148;28;20047;-78
2023/07/02 00:26:14;;;;;;;3.85;3.03;;;27.60;53.10;;;;;;5129520;28;20096;-78
2023/07/02 00:28:40;;;;;;;5.78;3.17;;;27.60;53.20;;;;;;5111975;28;20709;-78
2023/07/02 00:31:08;;;;;;;4.80;3.10;;;27.40;53.30;;;;;;5112291;28;20041;-78
2023/07/02 00:33:34;;;;;;;6.43;3.35;;;27.50;53.20;;;;;;5129053;28;20530;-78
2023/07/02 00:36:00;;;;;;;6.88;3.17;;;27.50;53.20;;;;;;5129218;28;20061;-78
2023/07/02 00:38:26;;;;;;;3.63;3.30;;;27.60;53.40;;;;;;5129292;28;20107;-78
2023/07/02 00:40:52;;;;;;;5.20;2.80;;;27.50;53.40;;;;;;5094923;28;20537;-78
2023/07/02 00:43:18;;;;;;;3.72;2.67;;;27.50;53.30;;;;;;5129329;27;20467;-77
2023/07/02 00:45:45;;;;;;;2.80;2.33;;;27.50;53.30;;;;;;5132740;27;20046;-78
2023/07/02 00:48:12;;;;;;;3.38;2.78;;;27.50;53.30;;;;;;5132695;27;20031;-78
2023/07/02 00:50:40;;;;;;;3.47;2.70;;;27.60;53.30;;;;;;5132858;27;20031;-78
2023/07/02 00:53:06;;;;;;;7.97;3.17;;;27.50;53.30;;;;;;5115601;27;20031;-77
2023/07/02 00:55:32;;;;;;;6.30;2.92;;;27.70;53.30;;;;;;5117799;27;20051;-77
2023/07/02 00:57:58;;;;;;;3.35;2.50;;;27.60;53.30;;;;;;5114653;28;20039;-77
2023/07/02 01:00:24;;;;;;;4.80;2.78;;;27.50;53.30;;;;;;5132474;27;20054;-78
2023/07/02 01:02:58;;;;;;;2.95;2.40;;;27.60;53.30;;;;;;5115490;27;20047;-78
2023/07/02 01:05:35;;;;;;;3.35;3.03;;;27.60;53.10;;;;;;5132618;27;20440;-78
2023/07/02 01:08:05;;;;;;;8.77;2.85;;;27.60;53.20;;;;;;5132405;27;20687;-78
2023/07/02 01:10:32;;;;;;;6.05;2.58;;;27.50;53.20;;;;;;5098243;27;20140;-77
2023/07/02 01:13:15;;;;;;;3.78;2.53;;;27.50;53.20;;;;;;5115137;27;20088;-78
2023/07/02 01:15:42;;;;;;;3.58;2.45;;;27.50;53.20;;;;;;5132046;27;20049;-78
2023/07/02 01:18:08;;;;;;;3.25;2.40;;;27.50;53.20;;;;;;5132418;27;20559;-78
2023/07/02 01:20:35;;;;;;;3.38;2.25;;;27.50;53.20;;;;;;5114767;27;20049;-78
2023/07/02 01:23:02;;;;;;;3.60;2.40;;;27.60;53.40;;;;;;5132220;27;20031;-77
2023/07/02 01:25:29;;;;;;;5.50;2.65;;;27.50;53.30;;;;;;5132186;27;20070;-78
2023/07/02 01:27:58;;;;;;;5.88;2.78;;;27.60;53.20;;;;;;5132006;27;20616;-78
2023/07/02 01:30:25;;;;;;;4.82;2.90;;;27.50;53.20;;;;;;5113442;27;20070;-78
2023/07/02 01:32:52;;;;;;;3.05;2.38;;;27.50;53.30;;;;;;5112733;28;20034;-78
2023/07/02 01:35:18;;;;;;;5.68;2.72;;;27.40;53.30;;;;;;5114001;28;20095;-78
2023/07/02 01:37:44;;;;;;;11.55;3.28;;;27.60;53.30;;;;;;5113907;28;20044;-78
2023/07/02 01:40:11;;;;;;;4.97;2.47;;;27.40;53.30;;;;;;5095693;28;20080;-78
2023/07/02 01:42:39;;;;;;;5.93;2.88;;;27.40;53.30;;;;;;5112706;28;20031;-78
2023/07/02 01:45:05;;;;;;;2.90;2.65;;;27.40;53.40;;;;;;5113771;28;20055;-78
2023/07/02 01:47:32;;;;;;;5.20;2.78;;;27.40;53.40;;;;;;5113619;27;20487;-78
2023/07/02 01:49:59;;;;;;;2.88;2.53;;;27.50;53.40;;;;;;5113525;28;20046;-78
2023/07/02 01:52:26;;;;;;;8.20;3.15;;;27.50;53.40;;;;;;5113550;28;20046;-78
2023/07/02 01:54:52;;;;;;;4.32;2.45;;;27.50;53.40;;;;;;5113315;28;20085;-78
2023/07/02 01:57:18;;;;;;;8.43;2.80;;;27.40;53.30;;;;;;5113558;28;20036;-78
2023/07/02 01:59:44;;;;;;;2.65;2.45;;;27.50;53.40;;;;;;5111923;28;20463;-78
2023/07/02 02:02:10;;;;;;;4.32;2.60;;;27.50;53.40;;;;;;5112326;28;20054;-78
2023/07/02 02:04:36;;;;;;;4.95;2.65;;;27.50;53.40;;;;;;5111969;28;20020;-78
2023/07/02 02:07:03;;;;;;;3.10;2.63;;;27.60;53.40;;;;;;5111969;28;20048;-78
2023/07/02 02:09:30;;;;;;;4.03;2.85;;;27.50;53.40;;;;;;5112008;28;20040;-78
2023/07/02 02:11:56;;;;;;;4.03;3.65;;;27.50;53.40;;;;;;5095113;28;20034;-78
2023/07/02 02:14:22;;;;;;;5.20;3.55;;;27.60;53.30;;;;;;5095174;28;20043;-77
2023/07/02 02:16:48;;;;;;;8.75;3.75;;;27.60;53.30;;;;;;5111986;28;20039;-78
2023/07/02 02:19:14;;;;;;;5.55;3.28;;;27.50;53.30;;;;;;5111688;28;20129;-78
2023/07/02 02:21:41;;;;;;;3.13;2.85;;;27.50;53.30;;;;;;5113172;28;20167;-78
2023/07/02 02:24:07;;;;;;;6.68;3.15;;;27.40;53.30;;;;;;5076730;28;20085;-78
2023/07/02 02:26:35;;;;;;;4.38;2.97;;;27.50;53.30;;;;;;5110336;28;20050;-78
2023/07/02 02:29:02;;;;;;;6.57;3.00;;;27.50;53.30;;;;;;5110398;28;20568;-78
2023/07/02 02:31:28;;;;;;;5.78;2.85;;;27.40;53.30;;;;;;5076457;28;20040;-78
2023/07/02 02:33:55;;;;;;;7.03;3.20;;;27.40;53.30;;;;;;5110323;28;20051;-78
2023/07/02 02:36:21;;;;;;;4.18;3.17;;;27.50;53.30;;;;;;5093272;28;20379;-78
2023/07/02 02:38:47;;;;;;;4.72;3.50;;;27.40;53.40;;;;;;5093157;28;20130;-77
2023/07/02 02:41:13;;;;;;;4.65;2.95;;;27.40;53.40;;;;;;5093079;28;20047;-78
2023/07/02 02:43:44;;;;;;;6.88;2.60;;;27.40;53.40;;;;;;5092999;28;20059;-78
2023/07/02 02:46:19;;;;;;;7.32;2.80;;;27.50;53.40;;;;;;5093202;28;20031;-78
2023/07/02 02:48:46;;;;;;;4.25;2.65;;;27.30;53.40;;;;;;5092827;28;20561;-78
2023/07/02 02:51:11;;;;;;;4.65;2.67;;;27.60;53.50;;;;;;5109855;28;20059;-78
2023/07/02 02:53:37;;;;;;;3.58;2.65;;;27.40;53.50;;;;;;5092878;28;20036;-78
2023/07/02 02:56:04;;;;;;;8.38;3.42;;;27.50;53.50;;;;;;5112078;28;20050;-78
2023/07/02 02:58:30;;;;;;;4.47;2.80;;;27.50;53.50;;;;;;5111080;28;20497;-77
2023/07/02 03:00:56;;;;;;;4.07;2.95;;;27.50;53.50;;;;;;5094008;28;20032;-78
2023/07/02 03:03:24;;;;;;;6.47;3.08;;;27.50;53.50;;;;;;5110986;28;20032;-79
2023/07/02 03:05:50;;;;;;;3.90;3.00;;;27.40;53.50;;;;;;5112277;28;20024;-78
2023/07/02 03:08:17;;;;;;;7.15;2.90;;;27.40;53.50;;;;;;5112377;28;20466;-78
2023/07/02 03:10:43;;;;;;;6.22;2.78;;;27.50;53.40;;;;;;5111955;28;20027;-78
2023/07/02 03:13:09;;;;;;;7.38;3.30;;;27.60;53.50;;;;;;5112223;28;20501;-78
2023/07/02 03:15:35;;;;;;;7.80;2.50;;;27.50;53.50;;;;;;5110690;28;20066;-78
2023/07/02 03:18:01;;;;;;;5.32;2.85;;;27.40;53.40;;;;;;5110747;28;20061;-78
2023/07/02 03:20:27;;;;;;;4.72;3.20;;;27.40;53.40;;;;;;5110620;28;20115;-78
2023/07/02 03:22:53;;;;;;;4.40;3.15;;;27.60;53.40;;;;;;5111881;28;20032;-78
2023/07/02 03:25:19;;;;;;;3.40;3.10;;;27.50;53.40;;;;;;5111915;28;20047;-77
2023/07/02 03:27:45;;;;;;;4.68;3.58;;;27.50;53.40;;;;;;5110503;28;20491;-78
2023/07/02 03:30:11;;;;;;;2.95;2.67;;;27.50;53.40;;;;;;5111864;28;20028;-77
2023/07/02 03:32:37;;;;;;;3.50;3.15;;;27.40;53.40;;;;;;5111838;28;20027;-78
2023/07/02 03:35:04;;;;;;;3.92;3.10;;;27.50;53.40;;;;;;5110648;28;20506;-78
2023/07/02 03:37:30;;;;;;;3.30;3.00;;;27.40;53.40;;;;;;5112069;28;20036;-77
2023/07/02 03:39:56;;;;;;;5.47;3.40;;;27.40;53.40;;;;;;5111827;28;20031;-78
2023/07/02 03:42:22;;;;;;;3.55;3.25;;;27.60;53.40;;;;;;5110326;28;20491;-77
2023/07/02 03:44:47;;;;;;;5.05;2.50;;;27.40;53.30;;;;;;5112098;28;20086;-78
2023/07/02 03:47:15;;;;;;;3.08;2.78;;;27.40;53.40;;;;;;5111475;28;20157;-78
2023/07/02 03:49:42;;;;;;;4.55;2.72;;;27.50;53.40;;;;;;5111918;28;20047;-77
2023/07/02 03:52:08;;;;;;;5.60;3.05;;;27.40;53.50;;;;;;5111879;28;20024;-78
2023/07/02 03:54:34;;;;;;;5.35;2.75;;;27.40;53.40;;;;;;5111723;28;20046;-78
2023/07/02 03:57:00;;;;;;;4.68;2.72;;;27.50;53.50;;;;;;5111861;28;20028;-78
2023/07/02 03:59:26;;;;;;;3.47;3.10;;;27.40;53.40;;;;;;5111222;28;20028;-78
2023/07/02 04:01:52;;;;;;;3.80;2.88;;;27.50;53.40;;;;;;5111236;28;20090;-78
2023/07/02 04:04:17;;;;;;;5.50;2.95;;;27.60;53.50;;;;;;5093663;28;20115;-78
2023/07/02 04:06:43;;;;;;;3.97;2.72;;;27.40;53.50;;;;;;5111801;28;20035;-77
2023/07/02 04:09:09;;;;;;;5.20;2.83;;;27.40;53.50;;;;;;5111555;28;20070;-77
2023/07/02 04:11:35;;;;;;;3.08;2.78;;;27.50;53.50;;;;;;5111486;28;20363;-78
2023/07/02 04:14:02;;;;;;;8.45;2.83;;;27.60;53.40;;;;;;5111456;28;20031;-78
2023/07/02 04:16:28;;;;;;;3.35;2.28;;;27.50;53.40;;;;;;5111276;28;20418;-78
2023/07/02 04:18:54;;;;;;;3.40;3.10;;;27.60;53.40;;;;;;5111945;28;20036;-78
2023/07/02 04:21:20;;;;;;;8.52;3.03;;;27.60;53.50;;;;;;5115455;28;20035;-78
2023/07/02 04:23:46;;;;;;;3.28;2.50;;;27.50;53.40;;;;;;5115629;28;20066;-78
2023/07/02 04:26:12;;;;;;;4.50;2.72;;;27.50;53.40;;;;;;5115272;28;20428;-78
2023/07/02 04:28:38;;;;;;;3.00;2.70;;;27.40;53.40;;;;;;5115266;28;20035;-78
2023/07/02 04:31:04;;;;;;;6.68;3.17;;;27.50;53.40;;;;;;5113667;28;20027;-78
2023/07/02 04:33:35;;;;;;;6.30;3.47;;;27.50;53.40;;;;;;5115367;28;20074;-78
2023/07/02 04:36:03;;;;;;;9.60;3.20;;;27.60;53.30;;;;;;5113935;28;20035;-78
2023/07/02 04:38:29;;;;;;;5.65;3.35;;;27.40;53.30;;;;;;5115220;28;20027;-78
2023/07/02 04:41:01;;;;;;;4.78;2.97;;;27.50;53.30;;;;;;5115056;28;20023;-78
2023/07/02 04:43:29;;;;;;;3.90;2.95;;;27.40;53.40;;;;;;5113507;28;20040;-78
2023/07/02 04:45:56;;;;;;;4.10;3.15;;;27.40;53.40;;;;;;5113893;28;20043;-77
2023/07/02 04:48:22;;;;;;;7.85;3.53;;;27.50;53.40;;;;;;5115186;28;20446;-77
2023/07/02 04:50:48;;;;;;;6.53;3.67;;;27.40;53.40;;;;;;5114974;28;20032;-78
2023/07/02 04:53:14;;;;;;;3.50;3.20;;;27.50;53.40;;;;;;5114729;28;20102;-78
2023/07/02 04:55:40;;;;;;;4.03;3.63;;;27.60;53.40;;;;;;5114649;28;20051;-77
2023/07/02 04:58:06;;;;;;;5.05;3.42;;;27.40;53.40;;;;;;5114598;28;20482;-77
2023/07/02 05:00:32;;;;;;;5.63;4.45;;;27.40;53.40;;;;;;5114671;28;20032;-78
2023/07/02 05:02:58;;;;;;;6.25;4.28;;;27.60;53.40;;;;;;5114579;28;20023;-77
2023/07/02 05:05:24;;;;;;;4.93;4.40;;;27.40;53.40;;;;;;5114411;28;20027;-77
2023/07/02 05:07:50;;;;;;;4.38;3.97;;;27.40;53.40;;;;;;5114538;28;20406;-77
2023/07/02 05:10:16;;;;;;;3.95;3.03;;;27.60;53.40;;;;;;5114409;28;20030;-78
2023/07/02 05:12:42;;;;;;;4.47;4.07;;;27.50;53.40;;;;;;5114376;28;20036;-78
2023/07/02 05:15:08;;;;;;;8.55;3.45;;;27.50;53.50;;;;;;5114236;28;20031;-77
2023/07/02 05:17:35;;;;;;;7.03;3.85;;;27.50;53.40;;;;;;5114302;28;20028;-77
2023/07/02 05:20:04;;;;;;;5.00;3.67;;;27.40;53.40;;;;;;5114090;28;20035;-78
2023/07/02 05:22:30;;;;;;;3.65;3.08;;;27.50;53.40;;;;;;5112109;28;20048;-78
2023/07/02 05:24:56;;;;;;;6.90;3.42;;;27.70;53.40;;;;;;5113981;28;20483;-77
2023/07/02 05:27:22;;;;;;;5.65;4.13;;;27.50;53.40;;;;;;5114099;27;20028;-77
2023/07/02 05:29:48;;;;;;;4.55;3.00;;;27.50;53.40;;;;;;5113598;27;20062;-77
2023/07/02 05:32:14;;;;;;;3.80;3.40;;;27.50;53.30;;;;;;5114098;28;20031;-77
2023/07/02 05:34:40;;;;;;;5.05;3.50;;;27.60;53.40;;;;;;5114103;28;20039;-77
2023/07/02 05:37:06;;;;;;;4.93;3.20;;;27.50;53.40;;;;;;5113885;28;20036;-77
2023/07/02 05:39:34;;;;;;;4.30;3.60;;;27.50;53.40;;;;;;5114077;28;20028;-77
2023/07/02 05:42:00;;;;;;;3.60;3.22;;;27.50;53.40;;;;;;5113579;28;20039;-77
2023/07/02 05:44:26;;;;;;;1.67;1.58;;;27.40;53.40;;;;;;5113861;28;20067;-77
2023/07/02 05:46:52;;;;;;;2.78;1.95;;;27.50;53.40;;;;;;5113928;28;20063;-77
2023/07/02 05:49:18;;;;;;;1.67;1.30;;;27.50;53.40;;;;;;5112583;28;20039;-77
2023/07/02 05:51:43;;;;;;;1.40;1.30;;;27.40;53.40;;;;;;5112109;28;20186;-77
2023/07/02 05:54:10;;;;;;;1.52;1.40;;;27.50;53.40;;;;;;5112051;28;20130;-77
2023/07/02 05:56:36;;;;;;;1.55;1.45;;;27.40;53.40;;;;;;5113615;28;20028;-77
2023/07/02 05:59:02;;;;;;;1.88;1.50;;;27.40;53.50;;;;;;5113354;28;20489;-77
2023/07/02 06:01:28;;;;;;;1.55;1.45;;;27.40;53.50;;;;;;5112077;28;20028;-77
2023/07/02 06:03:54;;;;;;;2.03;1.60;;;27.40;53.60;;;;;;5113126;28;20028;-77
2023/07/02 06:06:23;;;;;;;1.20;1.20;;;27.40;53.60;;;;;;5113198;28;20453;-77
2023/07/02 06:08:49;;;;;;;1.65;1.55;;;27.50;53.60;;;;;;5113024;28;20118;-77
2023/07/02 06:11:15;;;;;;;1.25;1.20;;;27.40;53.60;;;;;;5113240;28;20070;-77
2023/07/02 06:13:41;;;;;;;1.95;1.50;;;27.40;53.60;;;;;;5112924;27;20364;-77
2023/07/02 06:16:07;;;;;;;1.25;1.25;;;27.50;53.60;;;;;;5111829;28;20111;-77
2023/07/02 06:18:33;;;;;;;1.35;1.25;;;27.40;53.60;;;;;;5111637;28;20403;-77
2023/07/02 06:20:59;;;;;;;2.55;1.40;;;27.60;53.60;;;;;;5112860;27;20024;-77
2023/07/02 06:23:25;;;;;;;1.40;1.30;;;27.60;53.60;;;;;;5094886;28;20047;-77
2023/07/02 06:25:58;;;;;;;1.35;1.25;;;27.40;53.60;;;;;;5113046;28;20067;-77
2023/07/02 06:28:28;;;;;;;1.50;1.40;;;27.50;53.60;;;;;;5111697;28;20088;-77
2023/07/02 06:30:54;;;;;;;4.97;2.75;;;27.40;53.60;;;;;;5112878;28;20040;-77
2023/07/02 06:33:20;;;;;;;1.65;1.55;;;27.60;53.60;;;;;;5112962;28;20034;-77
2023/07/02 06:35:46;;;;;;;0.90;0.90;;;27.60;53.60;;;;;;5112560;28;20447;-77
2023/07/02 06:38:12;;;;;;;1.48;1.38;;;27.50;53.60;;;;;;5112822;28;20035;-77
2023/07/02 06:40:38;;;;;;;2.95;2.40;;;27.50;53.50;;;;;;5110760;28;20034;-77
2023/07/02 06:43:03;;;;;;;1.27;1.27;;;27.50;53.60;;;;;;5111141;28;20040;-78
2023/07/02 06:45:29;;;;;;;1.52;1.42;;;27.50;53.60;;;;;;5112432;28;20056;-77
2023/07/02 06:47:55;;;;;;;1.52;1.42;;;27.60;53.50;;;;;;5112413;28;20142;-77
2023/07/02 06:50:22;;;;;;;1.50;1.40;;;27.50;53.50;;;;;;5112490;28;20031;-78
2023/07/02 06:52:48;;;;;;;1.25;1.15;;;27.40;53.60;;;;;;5112284;28;20028;-77
2023/07/02 06:55:14;;;;;;;1.42;1.33;;;27.60;53.50;;;;;;5112693;28;20036;-77
2023/07/02 06:57:47;;;;;;;1.65;1.55;;;27.30;53.60;;;;;;5112267;28;20043;-77
2023/07/02 07:00:14;;;;;;;3.28;1.73;;;27.40;53.60;;;;;;5112473;28;20024;-77
2023/07/02 07:02:41;;;;;;;1.42;1.33;;;27.40;53.60;;;;;;5112097;28;20020;-77
2023/07/02 07:05:10;;;;;;;1.42;1.33;;;27.50;53.60;;;;;;5112454;28;20049;-77
2023/07/02 07:07:36;;;;;;;1.38;1.27;;;27.50;53.60;;;;;;5112139;28;20593;-77
2023/07/02 07:10:05;;;;;;;1.80;1.70;;;27.50;53.70;;;;;;5112226;28;20486;-77
2023/07/02 07:12:31;;;;;;;1.10;1.10;;;27.40;53.70;;;;;;5112110;28;20070;-77
2023/07/02 07:14:59;;;;;;;2.35;1.55;;;27.40;53.70;;;;;;5112148;28;20071;-78
2023/07/02 07:17:25;;;;;;;1.83;1.40;;;27.40;53.70;;;;;;5093871;28;20040;-77
2023/07/02 07:19:51;;;;;;;1.85;1.45;;;27.40;53.70;;;;;;5126902;27;20057;-77
2023/07/02 07:22:17;;;;;;;1.70;1.60;;;27.40;53.70;;;;;;5109290;28;20090;-77
2023/07/02 07:24:46;;;;;;;1.42;1.33;;;27.50;53.70;;;;;;5109377;28;20134;-77
2023/07/02 07:27:12;;;;;;;1.63;1.50;;;27.40;53.70;;;;;;5109542;28;20471;-78
2023/07/02 07:29:43;;;;;;;1.60;1.50;;;27.40;53.70;;;;;;5109422;28;20122;-77
2023/07/02 07:32:09;;;;;;;2.92;1.58;;;27.50;53.70;;;;;;5088628;28;20525;-77
2023/07/02 07:34:35;;;;;;;1.80;1.48;;;27.50;53.70;;;;;;5088727;28;20136;-77
2023/07/02 07:37:01;;;;;;;2.08;1.35;;;27.50;53.70;;;;;;5088860;28;20048;-77
2023/07/02 07:39:27;;;;;;;2.58;1.30;;;27.50;53.70;;;;;;5089043;28;20055;-77
2023/07/02 07:41:53;;;;;;;2.65;1.50;;;27.40;53.70;;;;;;5088830;28;20462;-77
2023/07/02 07:44:19;;;;;;;2.75;1.60;;;27.60;53.60;;;;;;5088904;28;20477;-77
2023/07/02 07:46:45;;;;;;;1.77;1.48;;;27.50;53.60;;;;;;5088753;28;20074;-77
2023/07/02 07:49:12;;;;;;;1.80;1.65;;;27.50;53.60;;;;;;5072182;28;20484;-77
2023/07/02 07:51:38;;;;;;;2.67;2.35;;;27.50;53.60;;;;;;5088592;28;20039;-77
2023/07/02 07:54:04;;;;;;;2.08;1.65;;;27.40;53.60;;;;;;5092565;28;20063;-77
2023/07/02 07:56:30;;;;;;;1.52;1.30;;;27.50;53.60;;;;;;5092800;28;20050;-77
2023/07/02 07:58:57;;;;;;;1.52;1.42;;;27.60;53.70;;;;;;5092928;28;20040;-77
2023/07/02 08:01:26;;;;;;;1.35;1.27;;;27.60;53.70;;;;;;5092934;28;20028;-77
2023/07/02 08:03:52;;;;;;;2.65;1.73;;;27.40;53.60;;;;;;5110923;28;20126;-77
2023/07/02 08:06:18;;;;;;;2.67;1.42;;;27.50;53.60;;;;;;5115996;28;20114;-77
2023/07/02 08:08:44;;;;;;;2.00;1.67;;;27.50;53.60;;;;;;5115709;28;20161;-77
2023/07/02 08:11:10;;;;;;;1.67;1.58;;;27.40;53.60;;;;;;5115409;28;20054;-77
2023/07/02 08:13:36;;;;;;;2.00;1.45;;;27.30;53.60;;;;;;5114046;28;20382;-77
2023/07/02 08:16:02;;;;;;;1.70;1.60;;;27.30;53.70;;;;;;5115472;28;20053;-77
2023/07/02 08:18:28;;;;;;;1.80;1.42;;;27.40;53.70;;;;;;5113236;28;20096;-76
2023/07/02 08:20:54;;;;;;;1.40;1.30;;;27.40;53.70;;;;;;5114219;28;20040;-77
2023/07/02 08:23:20;;;;;;;1.67;1.55;;;27.40;53.80;;;;;;5113943;28;20024;-77
2023/07/02 08:25:46;;;;;;;2.25;1.65;;;27.40;53.70;;;;;;5113869;28;20027;-77
2023/07/02 08:28:12;;;;;;;2.35;1.60;;;27.50;53.80;;;;;;5113180;28;20042;-77
2023/07/02 08:30:38;;;;;;;1.50;1.40;;;27.50;53.80;;;;;;5114949;28;20040;-77
2023/07/02 08:33:04;;;;;;;2.15;1.60;;;27.50;53.80;;;;;;5113798;28;20463;-77
2023/07/02 08:35:30;;;;;;;1.70;1.40;;;27.50;53.80;;;;;;5114947;27;20035;-77
2023/07/02 08:37:56;;;;;;;1.55;1.45;;;27.50;53.80;;;;;;5115094;27;20031;-77
2023/07/02 08:40:22;;;;;;;1.65;1.30;;;27.40;53.80;;;;;;5115060;28;20374;-77
2023/07/02 08:42:48;;;;;;;1.63;1.50;;;27.50;53.90;;;;;;5115019;28;20034;-77
2023/07/02 08:45:19;;;;;;;1.48;1.25;;;27.40;53.90;;;;;;5115254;28;20059;-77
2023/07/02 08:47:45;;;;;;;2.97;1.65;;;27.50;53.60;;;;;;5115284;28;20491;-77
2023/07/02 08:50:14;;;;;;;4.82;2.55;;;27.50;53.70;;;;;;5115113;28;20069;-77
2023/07/02 08:52:40;;;;;;;2.67;2.47;;;27.50;53.70;;;;;;5114762;28;20116;-77
2023/07/02 08:55:07;;;;;;;3.00;2.30;;;27.50;53.60;;;;;;5114783;28;20042;-77
2023/07/02 08:57:35;;;;;;;4.00;2.70;;;27.50;53.60;;;;;;5115383;27;20603;-77
2023/07/02 09:00:10;;;;;;;1.75;1.45;;;27.50;53.60;;;;;;5115676;27;20070;-77
2023/07/02 09:02:36;;;;;;;1.52;1.35;;;27.50;53.60;;;;;;5115097;27;20046;-77
2023/07/02 09:05:03;;;;;;;1.85;1.75;;;27.40;53.60;;;;;;5137120;27;20036;-76
2023/07/02 09:07:30;;;;;;;1.40;1.30;;;27.50;53.60;;;;;;5066925;27;20055;-77
2023/07/02 09:09:56;;;;;;;1.60;1.50;;;27.30;53.70;;;;;;5132700;27;20096;-77
2023/07/02 09:12:32;;;;;;;2.13;1.77;;;27.40;53.70;;;;;;5132109;27;20142;-77
2023/07/02 09:15:06;;;;;;;3.45;1.70;;;27.40;53.70;;;;;;5115681;27;20068;-77
2023/07/02 09:17:34;;;;;;;1.45;1.35;;;27.40;53.70;;;;;;5132165;27;20046;-77
2023/07/02 09:20:04;;;;;;;2.05;1.55;;;27.40;53.70;;;;;;5132358;27;20038;-77
2023/07/02 09:22:30;;;;;;;1.60;1.50;;;27.30;53.70;;;;;;5131909;27;20122;-77
2023/07/02 09:24:58;;;;;;;1.45;1.35;;;27.40;53.80;;;;;;5132432;27;20043;-77
2023/07/02 09:27:41;;;;;;;1.50;1.40;;;27.40;53.80;;;;;;5131850;27;20494;-77
2023/07/02 09:30:09;;;;;;;1.60;1.50;;;27.40;53.80;;;;;;5114361;28;20040;-77
2023/07/02 09:32:38;;;;;;;1.40;1.30;;;27.40;53.80;;;;;;5113728;28;20161;-77
2023/07/02 09:35:04;;;;;;;2.30;2.00;;;27.50;53.80;;;;;;5113611;28;20040;-77
2023/07/02 09:37:31;;;;;;;1.48;1.38;;;27.30;53.80;;;;;;5113671;28;20471;-77
2023/07/02 09:39:58;;;;;;;1.70;1.58;;;27.40;53.90;;;;;;5128583;27;20039;-77
2023/07/02 09:42:26;;;;;;;1.45;1.35;;;27.30;53.80;;;;;;5113805;28;20031;-77
2023/07/02 09:44:58;;;;;;;2.53;1.55;;;27.30;53.90;;;;;;5113675;28;20047;-77
2023/07/02 09:47:25;;;;;;;3.33;2.35;;;27.30;53.90;;;;;;5113723;28;20472;-77
2023/07/02 09:49:59;;;;;;;1.95;1.45;;;27.30;54.00;;;;;;5112595;28;20034;-77
2023/07/02 09:52:27;;;;;;;1.38;1.20;;;27.50;54.00;;;;;;5110788;28;20044;-78
2023/07/02 09:54:53;;;;;;;1.70;1.48;;;27.50;54.00;;;;;;5094078;28;20074;-77
2023/07/02 09:57:19;;;;;;;1.60;1.38;;;27.40;54.00;;;;;;5076975;28;20097;-77
2023/07/02 09:59:46;;;;;;;1.60;1.50;;;27.30;54.00;;;;;;5093648;28;20032;-77
2023/07/02 10:02:13;;;;;;;2.90;1.70;;;27.40;54.00;;;;;;5110599;28;20039;-77
2023/07/02 10:04:43;;;;;;;1.67;1.55;;;27.40;54.00;;;;;;5110776;28;20089;-77
2023/07/02 10:07:10;;;;;;;2.38;1.73;;;27.40;54.00;;;;;;5110703;28;20043;-77
2023/07/02 10:09:36;;;;;;;1.50;1.40;;;27.40;54.00;;;;;;5110614;28;20062;-77
2023/07/02 10:12:14;;;;;;;2.65;2.00;;;27.40;54.00;;;;;;5110569;28;20495;-77
2023/07/02 10:14:42;;;;;;;2.45;2.25;;;27.40;54.00;;;;;;5069725;28;20048;-77
2023/07/02 10:17:08;;;;;;;1.45;1.35;;;27.60;53.90;;;;;;5068947;28;20036;-77
2023/07/02 10:19:34;;;;;;;1.73;1.30;;;27.50;53.90;;;;;;5069980;28;20094;-77
2023/07/02 10:22:04;;;;;;;1.50;1.40;;;27.50;53.90;;;;;;5069996;28;20036;-77
2023/07/02 10:24:30;;;;;;;1.83;1.73;;;27.60;53.90;;;;;;5055484;28;20052;-77
2023/07/02 10:26:59;;;;;;;1.73;1.63;;;27.60;53.90;;;;;;5089961;28;20553;-77
2023/07/02 10:29:26;;;;;;;1.30;1.20;;;27.70;53.90;;;;;;5090063;28;20213;-77
2023/07/02 10:31:54;;;;;;;1.52;1.42;;;27.60;53.80;;;;;;5089738;28;20044;-77
2023/07/02 10:34:33;;;;;;;1.50;1.40;;;27.60;53.80;;;;;;5090117;28;20062;-77
2023/07/02 10:37:03;;;;;;;1.77;1.48;;;27.60;53.80;;;;;;5090029;28;20730;-77
2023/07/02 10:39:30;;;;;;;1.85;1.38;;;27.70;53.80;;;;;;5089876;28;20040;-77
2023/07/02 10:42:09;;;;;;;1.67;1.58;;;27.60;53.70;;;;;;5073139;28;20040;-76
2023/07/02 10:44:46;;;;;;;1.83;1.40;;;27.60;53.70;;;;;;5089581;28;20055;-77
2023/07/02 10:47:12;;;;;;;2.58;1.40;;;27.60;53.70;;;;;;5089823;28;20152;-77
2023/07/02 10:49:38;;;;;;;2.88;2.45;;;27.70;53.70;;;;;;5089824;28;20077;-77
2023/07/02 10:52:05;;;;;;;2.33;2.13;;;27.80;53.60;;;;;;5100273;28;20039;-77
2023/07/02 10:54:43;;;;;;;1.83;1.35;;;27.70;53.70;;;;;;5111451;28;20071;-77
2023/07/02 10:57:15;;;;;;;1.92;1.45;;;27.70;53.60;;;;;;5112501;28;20039;-78
2023/07/02 10:59:41;;;;;;;;;;;27.80;53.60;;;;;;5111587;28;20031;-77
2023/07/02 11:02:09;;;;;;;1.67;1.35;;;27.80;53.50;;;;;;5112090;28;19930;-77
2023/07/02 11:04:37;;;;;;;2.17;1.98;;;27.80;53.50;;;;;;5110938;28;20036;-78
2023/07/02 11:07:04;;;;;;;1.80;1.50;;;27.70;53.50;;;;;;5111059;28;20128;-77
2023/07/02 11:09:32;;;;;;;1.85;1.27;;;27.80;53.40;;;;;;5112120;28;20036;-77
2023/07/02 11:12:01;;;;;;;2.63;2.38;;;27.90;53.50;;;;;;5112187;28;20032;-76
2023/07/02 11:14:35;;;;;;;1.70;1.27;;;28.00;53.90;;;;;;5112140;28;20064;-77
2023/07/02 11:17:06;;;;;;;2.80;1.92;;;27.80;53.40;;;;;;5111997;28;20088;-77
2023/07/02 11:19:33;;;;;;;1.35;1.20;;;27.80;53.30;;;;;;5112027;28;20051;-77
2023/07/02 11:22:01;;;;;;;1.50;1.40;;;27.90;53.40;;;;;;5112156;28;20039;-77
2023/07/02 11:24:37;;;;;;;1.73;1.42;;;27.80;53.30;;;;;;5093865;28;20076;-77
2023/07/02 11:27:07;;;;;;;1.88;1.77;;;27.80;53.30;;;;;;5110400;28;20040;-77
2023/07/02 11:29:36;;;;;;;3.38;1.42;;;27.80;53.30;;;;;;5110499;28;20386;-77
2023/07/02 11:32:12;;;;;;;1.45;1.35;;;27.80;53.20;;;;;;5111931;28;20340;-77
2023/07/02 11:34:39;;;;;;;1.33;1.23;;;27.90;53.10;;;;;;5112005;28;20066;-77
2023/07/02 11:37:05;;;;;;;1.85;1.50;;;27.90;53.10;;;;;;5111759;28;20023;-77
2023/07/02 11:39:32;;;;;;;1.42;1.33;;;27.80;53.20;;;;;;5112018;28;20104;-77
2023/07/02 11:41:58;;;;;;;1.70;1.60;;;27.80;53.20;;;;;;5111767;28;20376;-77
2023/07/02 11:44:24;;;;;;;1.40;1.25;;;27.80;53.30;;;;;;5109291;28;20040;-77
2023/07/02 11:46:50;;;;;;;1.85;1.52;;;27.80;53.20;;;;;;5111926;28;20399;-77
2023/07/02 11:49:16;;;;;;;1.52;1.40;;;27.80;53.20;;;;;;5111792;28;20044;-77
2023/07/02 11:51:49;;;;;;;1.75;1.35;;;27.70;53.30;;;;;;5111585;28;20069;-77
2023/07/02 11:54:17;;;;;;;1.50;1.40;;;27.80;53.30;;;;;;5111195;28;20062;-77
2023/07/02 11:56:44;;;;;;;1.50;1.40;;;27.70;53.30;;;;;;5110336;28;20586;-77
2023/07/02 11:59:10;;;;;;;2.35;2.15;;;27.80;53.30;;;;;;5111453;28;20024;-77
2023/07/02 12:01:36;;;;;;;2.00;1.45;;;27.70;53.30;;;;;;5111481;28;20582;-77
2023/07/02 12:04:03;;;;;;;1.75;1.65;;;27.70;53.30;;;;;;5111397;28;20020;-77
2023/07/02 12:06:29;;;;;;;1.58;1.48;;;27.70;53.30;;;;;;5110511;28;20061;-77
2023/07/02 12:08:54;;;;;;;1.67;1.50;;;27.70;53.30;;;;;;5111731;28;20479;-77
2023/07/02 12:11:20;;;;;;;2.40;1.42;;;27.70;53.30;;;;;;5111370;28;20487;-77
2023/07/02 12:13:46;;;;;;;1.55;1.40;;;27.80;53.30;;;;;;5111298;28;20066;-77
2023/07/02 12:16:12;;;;;;;1.20;1.10;;;27.80;53.30;;;;;;5111458;28;20043;-77
2023/07/02 12:18:38;;;;;;;1.50;1.33;;;27.80;53.30;;;;;;5111528;28;20024;-77
2023/07/02 12:21:04;;;;;;;1.45;1.30;;;27.90;53.30;;;;;;5111022;28;20035;-77
2023/07/02 12:23:31;;;;;;;1.80;1.70;;;27.90;53.30;;;;;;5111224;28;20118;-77
2023/07/02 12:25:57;;;;;;;1.60;1.45;;;27.90;53.30;;;;;;5111155;28;20070;-77
2023/07/02 12:28:23;;;;;;;1.13;1.10;;;27.80;53.30;;;;;;5110398;28;20541;-77
2023/07/02 12:30:49;;;;;;;1.77;1.50;;;27.90;53.30;;;;;;5111547;28;20161;-77
2023/07/02 12:33:15;;;;;;;2.15;1.95;;;27.90;53.30;;;;;;5111135;28;20095;-77
2023/07/02 12:35:41;;;;;;;1.73;1.52;;;27.80;53.30;;;;;;5111199;28;20488;-77
2023/07/02 12:38:08;;;;;;;2.95;1.30;;;27.90;53.10;;;;;;5111258;28;20032;-77
2023/07/02 12:40:34;;;;;;;3.00;2.15;;;27.90;53.20;;;;;;5128576;27;20047;-77
2023/07/02 12:43:00;;;;;;;1.75;1.63;;;27.90;53.20;;;;;;5115004;28;20027;-77
2023/07/02 12:45:26;;;;;;;2.35;1.67;;;27.90;53.10;;;;;;5115128;28;20088;-77
2023/07/02 12:47:52;;;;;;;1.88;1.58;;;27.80;53.10;;;;;;5114886;28;20425;-77